Flight Track Log - Related Links

Times and Time Zones

All times are in EDT time to prevent confusion due to time zone crossing. See the TUS8476 flight status page for this flight to view local times or setup timezone preferences in your user account.


Time Position Orientation Groundspeed Altitude Reporting Facility
EDT Latitude Longitude Course Direction KTS MPH feet Rate Location/Type
Sat 05:08:00 PM 23.2944 -78.8568 346° North  Level FlightAware Approximate
Sat 05:09:00 PM 23.4117 -78.8897 346° North  Level FlightAware Approximate
Sat 05:10:00 PM 23.5289 -78.9227 346° North  Level FlightAware Approximate
Sat 05:10:16 PM 23.2186 -78.8597 353° North 464 534 34,000  Level Miami Center
Sat 05:11:00 PM 23.6457 -78.9576 344° North  Level FlightAware Approximate
Sat 05:11:16 PM 23.3517 -78.9003 344° North 473 544 34,000  Level Miami Center
Sat 05:12:00 PM 23.7622 -78.9934 344° North  Level FlightAware Approximate
Sat 05:12:16 PM 23.4747 -78.9314 347° North 467 537 34,000  Level Miami Center
Sat 05:13:00 PM 23.8787 -79.0293 344° North  Level FlightAware Approximate
Sat 05:13:16 PM 23.6017 -78.9653 346° North 460 529 34,000  Level Miami Center
Sat 05:14:00 PM 23.9952 -79.0652 344° North  Level FlightAware Approximate
Sat 05:14:16 PM 23.7203 -78.9944 347° North 447 514 34,000  Level Miami Center
Sat 05:15:00 PM 24.1156 -79.0769 353° North  Level FlightAware Approximate
Sat 05:15:16 PM 23.8472 -79.0308 345° North 452 520 34,000  Level Miami Center
Sat 05:16:16 PM 23.9681 -79.0625 347° North 448 516 34,000  Level Miami Center
Sat 05:17:16 PM 24.0950 -79.0897 349° North 454 522 34,000  Level Miami Center
Sat 05:18:16 PM 24.2133 -79.1419 338° Northwest 449 517 34,000 -1,400 Level Miami Center
Sat 05:19:16 PM 24.3336 -79.2033 335° Northwest 457 526 31,200 -2,650 Descending Miami Center
Sat 05:20:16 PM 24.4683 -79.2675 337° Northwest 475 547 28,700 -2,250 Descending Miami Center
Sat 05:21:16 PM 24.5864 -79.3247 336° Northwest 469 540 26,700 -2,250 Descending Miami Center
Sat 05:22:16 PM 24.7006 -79.3842 335° Northwest 456 525 24,200 -2,300 Descending Miami Center
Sat 05:23:16 PM 24.8164 -79.4392 337° Northwest 451 519 22,100 -2,300 Descending Miami Center
Sat 05:24:16 PM 24.9242 -79.4939 335° Northwest 436 502 19,600 -2,150 Descending Miami Center
Sat 05:25:16 PM 25.0339 -79.5469 336° Northwest 436 502 17,800 -1,758 Descending Miami Center
Sat 05:25:55 PM 25.0981 -79.5850 332° Northwest 420 483 16,700 -2,045 Descending Miami Center
Sat 05:26:44 PM 25.1850 -79.6283 336° Northwest 401 461 14,800 -2,222 Descending Miami Center
Sat 05:27:16 PM 25.2389 -79.6500 340° North 416 479 13,700 -1,826 Descending Miami Center
Sat 05:28:16 PM 25.3342 -79.7006 334° Northwest 393 452 12,000 -1,133 Descending Miami Center
Sat 05:28:46 PM 25.3775 -79.7269 331° Northwest 341 392 12,000 -300 Level Miami Center
Sat 05:29:16 PM 25.4122 -79.7600 319° Northwest 361 415 11,700 -689 Descending Miami Center
Sat 05:29:47 PM 25.4428 -79.8089 305° West 354 407 11,300 -717 Descending Miami Center
Sat 05:30:48 PM 25.4972 -79.8931 306° West 323 372 10,600 -683 Descending Miami Center
Sat 05:31:50 PM 25.5478 -79.9728 305° West 299 344 9,900 -683 Descending Miami Center
Sat 05:32:51 PM 25.5986 -80.0453 308° West 300 345 9,200 -703 Descending Miami Center
Sat 05:33:58 PM 25.6531 -80.1322 305° West 296 341 8,400 -689 Descending Miami Center
Sat 05:34:53 PM 25.6786 -80.2089 290° West 303 349 7,800 -982 Descending Miami Center
Sat 05:35:48 PM 25.6975 -80.2947 284° West 304 350 6,600 -1,707 Descending Miami Center
Sat 05:36:49 PM 25.7078 -80.3872 277° West 294 338 4,500 -1,688 Descending Miami Center
Sat 05:37:56 PM 25.7139 -80.4819 274° West 274 315 3,000 -703 Descending Miami Center
Sat 05:38:57 PM 25.7658 -80.4858 356° North 185 213 3,000 -492 Level Miami Center
Sat 05:39:58 PM 25.7775 -80.4353 76° East 175 201 2,000 -885 Descending Miami Center
Sat 05:40:59 PM 25.7789 -80.3847 88° East 161 185 1,200 -787 Descending Miami Center
Sat 05:42:00 PM 25.7819 -80.3386 86° East 144 166 400 -787 Descending Miami Center
Sat 05:44:00 PM 25.7833 -80.2833 77° East  Level FlightAware Approximate

Login

Don't have an account? Register now (free) for customized features, flight alerts, and more!